sensor_id;sensor_type;location;lat;lon;timestamp;P1;durP1;ratioP1;P2;durP2;ratioP2
18267;SDS011;9260;49.998;19.880;2023-04-06T00:06:31;182.40;;;87.20;;
18267;SDS011;9260;49.998;19.880;2023-04-06T00:16:34;179.20;;;86.47;;
18267;SDS011;9260;49.998;19.880;2023-04-06T00:26:40;181.43;;;86.77;;
18267;SDS011;9260;49.998;19.880;2023-04-06T00:36:44;186.33;;;91.90;;
18267;SDS011;9260;49.998;19.880;2023-04-06T00:46:49;183.70;;;90.07;;
18267;SDS011;9260;49.998;19.880;2023-04-06T00:56:53;184.17;;;88.10;;
18267;SDS011;9260;49.998;19.880;2023-04-06T01:07:00;179.47;;;87.03;;
18267;SDS011;9260;49.998;19.880;2023-04-06T01:17:14;181.23;;;88.77;;
18267;SDS011;9260;49.998;19.880;2023-04-06T01:27:21;187.97;;;87.77;;
18267;SDS011;9260;49.998;19.880;2023-04-06T01:37:48;181.40;;;88.77;;
18267;SDS011;9260;49.998;19.880;2023-04-06T01:48:01;176.50;;;84.77;;
18267;SDS011;9260;49.998;19.880;2023-04-06T01:58:06;181.90;;;89.13;;
18267;SDS011;9260;49.998;19.880;2023-04-06T02:08:13;187.87;;;92.47;;
18267;SDS011;9260;49.998;19.880;2023-04-06T02:18:17;184.53;;;90.60;;
18267;SDS011;9260;49.998;19.880;2023-04-06T02:28:23;173.57;;;87.07;;
18267;SDS011;9260;49.998;19.880;2023-04-06T02:38:27;171.77;;;88.97;;
18267;SDS011;9260;49.998;19.880;2023-04-06T02:48:36;172.83;;;86.03;;
18267;SDS011;9260;49.998;19.880;2023-04-06T02:58:40;167.50;;;85.07;;
18267;SDS011;9260;49.998;19.880;2023-04-06T03:08:46;170.50;;;90.13;;
18267;SDS011;9260;49.998;19.880;2023-04-06T03:18:50;168.40;;;86.63;;
18267;SDS011;9260;49.998;19.880;2023-04-06T03:28:56;164.57;;;83.73;;
18267;SDS011;9260;49.998;19.880;2023-04-06T03:39:04;169.30;;;87.23;;
18267;SDS011;9260;49.998;19.880;2023-04-06T03:49:14;168.73;;;88.47;;
18267;SDS011;9260;49.998;19.880;2023-04-06T03:59:22;175.30;;;92.13;;
18267;SDS011;9260;49.998;19.880;2023-04-06T04:09:28;173.23;;;91.43;;
18267;SDS011;9260;49.998;19.880;2023-04-06T04:19:32;171.17;;;87.37;;
18267;SDS011;9260;49.998;19.880;2023-04-06T04:29:38;176.23;;;93.10;;
18267;SDS011;9260;49.998;19.880;2023-04-06T04:39:45;170.10;;;89.73;;
18267;SDS011;9260;49.998;19.880;2023-04-06T04:49:51;178.53;;;94.17;;
18267;SDS011;9260;49.998;19.880;2023-04-06T04:59:57;182.03;;;91.77;;
18267;SDS011;9260;49.998;19.880;2023-04-06T05:10:03;192.97;;;98.73;;
18267;SDS011;9260;49.998;19.880;2023-04-06T05:20:14;201.20;;;103.77;;
18267;SDS011;9260;49.998;19.880;2023-04-06T05:30:24;193.87;;;98.30;;
18267;SDS011;9260;49.998;19.880;2023-04-06T05:40:28;216.17;;;106.47;;
18267;SDS011;9260;49.998;19.880;2023-04-06T05:50:35;213.80;;;108.63;;
18267;SDS011;9260;49.998;19.880;2023-04-06T06:00:40;212.83;;;104.23;;
18267;SDS011;9260;49.998;19.880;2023-04-06T06:10:51;212.00;;;102.43;;
18267;SDS011;9260;49.998;19.880;2023-04-06T06:20:57;212.20;;;105.87;;
18267;SDS011;9260;49.998;19.880;2023-04-06T06:31:03;211.23;;;106.50;;
18267;SDS011;9260;49.998;19.880;2023-04-06T06:41:07;207.47;;;102.03;;
18267;SDS011;9260;49.998;19.880;2023-04-06T06:51:14;199.40;;;97.70;;
18267;SDS011;9260;49.998;19.880;2023-04-06T07:01:18;194.30;;;92.60;;
18267;SDS011;9260;49.998;19.880;2023-04-06T07:11:24;195.27;;;97.57;;
18267;SDS011;9260;49.998;19.880;2023-04-06T07:21:28;198.80;;;97.50;;
18267;SDS011;9260;49.998;19.880;2023-04-06T07:31:33;191.87;;;93.63;;
18267;SDS011;9260;49.998;19.880;2023-04-06T07:41:38;197.53;;;98.77;;
18267;SDS011;9260;49.998;19.880;2023-04-06T07:51:43;196.30;;;99.80;;
18267;SDS011;9260;49.998;19.880;2023-04-06T08:01:47;198.10;;;97.03;;
18267;SDS011;9260;49.998;19.880;2023-04-06T08:11:52;202.87;;;96.80;;
18267;SDS011;9260;49.998;19.880;2023-04-06T08:21:56;205.87;;;102.13;;
18267;SDS011;9260;49.998;19.880;2023-04-06T08:32:01;197.33;;;97.33;;
18267;SDS011;9260;49.998;19.880;2023-04-06T08:42:10;189.20;;;91.63;;
18267;SDS011;9260;49.998;19.880;2023-04-06T08:52:24;199.47;;;100.20;;
18267;SDS011;9260;49.998;19.880;2023-04-06T09:02:29;199.30;;;95.07;;
18267;SDS011;9260;49.998;19.880;2023-04-06T09:12:34;202.33;;;98.67;;
18267;SDS011;9260;49.998;19.880;2023-04-06T09:22:39;203.63;;;101.53;;
18267;SDS011;9260;49.998;19.880;2023-04-06T09:32:46;199.77;;;94.60;;
18267;SDS011;9260;49.998;19.880;2023-04-06T09:42:51;200.20;;;93.60;;
18267;SDS011;9260;49.998;19.880;2023-04-06T09:52:57;195.97;;;97.03;;
18267;SDS011;9260;49.998;19.880;2023-04-06T10:03:04;195.10;;;95.73;;
18267;SDS011;9260;49.998;19.880;2023-04-06T10:13:19;194.20;;;93.67;;
18267;SDS011;9260;49.998;19.880;2023-04-06T10:23:24;195.40;;;92.07;;
18267;SDS011;9260;49.998;19.880;2023-04-06T10:33:37;198.93;;;95.67;;
18267;SDS011;9260;49.998;19.880;2023-04-06T10:43:42;192.67;;;90.80;;
18267;SDS011;9260;49.998;19.880;2023-04-06T10:53:50;199.97;;;95.43;;
18267;SDS011;9260;49.998;19.880;2023-04-06T11:03:57;192.97;;;92.83;;
18267;SDS011;9260;49.998;19.880;2023-04-06T11:14:03;198.67;;;99.00;;
18267;SDS011;9260;49.998;19.880;2023-04-06T11:24:07;198.23;;;97.43;;
18267;SDS011;9260;49.998;19.880;2023-04-06T11:34:15;200.07;;;99.27;;
18267;SDS011;9260;49.998;19.880;2023-04-06T11:44:31;191.03;;;94.03;;
18267;SDS011;9260;49.998;19.880;2023-04-06T11:54:39;199.73;;;99.60;;
18267;SDS011;9260;49.998;19.880;2023-04-06T12:04:43;203.87;;;104.80;;
18267;SDS011;9260;49.998;19.880;2023-04-06T12:14:48;201.27;;;98.17;;
18267;SDS011;9260;49.998;19.880;2023-04-06T12:24:52;200.60;;;97.87;;
18267;SDS011;9260;49.998;19.880;2023-04-06T12:34:57;195.57;;;95.80;;
18267;SDS011;9260;49.998;19.880;2023-04-06T12:45:01;199.63;;;94.17;;
18267;SDS011;9260;49.998;19.880;2023-04-06T12:55:07;188.43;;;88.30;;
18267;SDS011;9260;49.998;19.880;2023-04-06T13:05:12;197.73;;;93.83;;
18267;SDS011;9260;49.998;19.880;2023-04-06T13:15:22;193.47;;;92.13;;
18267;SDS011;9260;49.998;19.880;2023-04-06T13:25:25;193.53;;;95.80;;
18267;SDS011;9260;49.998;19.880;2023-04-06T13:35:31;197.43;;;92.40;;
18267;SDS011;9260;49.998;19.880;2023-04-06T13:45:37;192.77;;;92.97;;
18267;SDS011;9260;49.998;19.880;2023-04-06T13:55:43;196.37;;;94.97;;
18267;SDS011;9260;49.998;19.880;2023-04-06T14:05:47;197.47;;;95.17;;
18267;SDS011;9260;49.998;19.880;2023-04-06T14:15:55;200.90;;;100.93;;
18267;SDS011;9260;49.998;19.880;2023-04-06T14:26:02;207.67;;;104.77;;
18267;SDS011;9260;49.998;19.880;2023-04-06T14:36:08;201.20;;;97.77;;
18267;SDS011;9260;49.998;19.880;2023-04-06T14:46:12;203.93;;;95.40;;
18267;SDS011;9260;49.998;19.880;2023-04-06T14:56:22;213.60;;;102.53;;
18267;SDS011;9260;49.998;19.880;2023-04-06T15:06:30;214.87;;;104.37;;
18267;SDS011;9260;49.998;19.880;2023-04-06T15:16:35;210.70;;;104.57;;
18267;SDS011;9260;49.998;19.880;2023-04-06T15:26:39;211.40;;;105.80;;
18267;SDS011;9260;49.998;19.880;2023-04-06T15:36:44;211.00;;;104.23;;
18267;SDS011;9260;49.998;19.880;2023-04-06T15:46:48;210.37;;;104.30;;
18267;SDS011;9260;49.998;19.880;2023-04-06T15:56:53;214.47;;;109.27;;
18267;SDS011;9260;49.998;19.880;2023-04-06T16:06:57;215.83;;;105.20;;
18267;SDS011;9260;49.998;19.880;2023-04-06T16:17:03;209.67;;;104.17;;
18267;SDS011;9260;49.998;19.880;2023-04-06T16:27:07;212.40;;;105.03;;
18267;SDS011;9260;49.998;19.880;2023-04-06T16:37:12;202.40;;;96.07;;
18267;SDS011;9260;49.998;19.880;2023-04-06T16:47:16;207.60;;;100.27;;
18267;SDS011;9260;49.998;19.880;2023-04-06T16:57:21;210.47;;;107.40;;
18267;SDS011;9260;49.998;19.880;2023-04-06T17:07:30;208.73;;;104.23;;
18267;SDS011;9260;49.998;19.880;2023-04-06T17:17:35;216.37;;;105.17;;
18267;SDS011;9260;49.998;19.880;2023-04-06T17:27:39;228.10;;;112.60;;
18267;SDS011;9260;49.998;19.880;2023-04-06T17:37:45;229.57;;;119.90;;
18267;SDS011;9260;49.998;19.880;2023-04-06T17:47:48;225.73;;;113.33;;
18267;SDS011;9260;49.998;19.880;2023-04-06T17:57:54;235.97;;;123.67;;
18267;SDS011;9260;49.998;19.880;2023-04-06T18:07:57;213.87;;;105.47;;
18267;SDS011;9260;49.998;19.880;2023-04-06T18:18:03;226.13;;;111.53;;
18267;SDS011;9260;49.998;19.880;2023-04-06T18:28:08;224.00;;;109.87;;
18267;SDS011;9260;49.998;19.880;2023-04-06T18:38:13;225.87;;;116.40;;
18267;SDS011;9260;49.998;19.880;2023-04-06T18:48:17;230.73;;;111.93;;
18267;SDS011;9260;49.998;19.880;2023-04-06T18:58:22;234.17;;;115.67;;
18267;SDS011;9260;49.998;19.880;2023-04-06T19:08:28;235.50;;;114.50;;
18267;SDS011;9260;49.998;19.880;2023-04-06T19:18:32;229.33;;;118.13;;
18267;SDS011;9260;49.998;19.880;2023-04-06T19:28:37;240.43;;;121.30;;
18267;SDS011;9260;49.998;19.880;2023-04-06T19:38:43;225.17;;;112.43;;
18267;SDS011;9260;49.998;19.880;2023-04-06T19:48:47;223.20;;;109.63;;
18267;SDS011;9260;49.998;19.880;2023-04-06T19:58:52;236.03;;;115.73;;
18267;SDS011;9260;49.998;19.880;2023-04-06T20:08:56;237.83;;;119.27;;
18267;SDS011;9260;49.998;19.880;2023-04-06T20:19:01;231.37;;;116.07;;
18267;SDS011;9260;49.998;19.880;2023-04-06T20:29:05;232.10;;;115.43;;
18267;SDS011;9260;49.998;19.880;2023-04-06T20:39:11;222.23;;;108.80;;
18267;SDS011;9260;49.998;19.880;2023-04-06T20:49:14;234.50;;;116.80;;
18267;SDS011;9260;49.998;19.880;2023-04-06T20:59:20;219.93;;;108.47;;
18267;SDS011;9260;49.998;19.880;2023-04-06T21:09:24;233.00;;;116.37;;
18267;SDS011;9260;49.998;19.880;2023-04-06T21:19:29;235.03;;;121.23;;
18267;SDS011;9260;49.998;19.880;2023-04-06T21:29:33;221.77;;;107.00;;
18267;SDS011;9260;49.998;19.880;2023-04-06T21:39:38;224.47;;;113.77;;
18267;SDS011;9260;49.998;19.880;2023-04-06T21:49:42;231.23;;;119.83;;
18267;SDS011;9260;49.998;19.880;2023-04-06T21:59:47;223.47;;;111.03;;
18267;SDS011;9260;49.998;19.880;2023-04-06T22:09:51;226.27;;;111.47;;
18267;SDS011;9260;49.998;19.880;2023-04-06T22:19:56;219.53;;;110.03;;
18267;SDS011;9260;49.998;19.880;2023-04-06T22:30:00;227.93;;;115.40;;
18267;SDS011;9260;49.998;19.880;2023-04-06T22:40:06;216.50;;;110.37;;
18267;SDS011;9260;49.998;19.880;2023-04-06T22:50:11;214.93;;;108.67;;
18267;SDS011;9260;49.998;19.880;2023-04-06T23:00:18;222.93;;;111.57;;
18267;SDS011;9260;49.998;19.880;2023-04-06T23:10:22;220.00;;;110.60;;
18267;SDS011;9260;49.998;19.880;2023-04-06T23:20:27;220.33;;;109.70;;
18267;SDS011;9260;49.998;19.880;2023-04-06T23:30:31;227.03;;;116.50;;
18267;SDS011;9260;49.998;19.880;2023-04-06T23:40:37;226.00;;;112.23;;
18267;SDS011;9260;49.998;19.880;2023-04-06T23:50:41;222.50;;;110.80;;
